sensor_id;sensor_type;location;lat;lon;timestamp;temperature;humidity
33382;DHT22;21342;48.786;9.166;2022-08-19T00:01:23;22.30;99.90
33382;DHT22;21342;48.786;9.166;2022-08-19T00:03:50;22.30;99.90
33382;DHT22;21342;48.786;9.166;2022-08-19T00:06:17;22.30;99.90
33382;DHT22;21342;48.786;9.166;2022-08-19T00:08:44;22.30;99.90
33382;DHT22;21342;48.786;9.166;2022-08-19T00:11:12;22.30;99.90
33382;DHT22;21342;48.786;9.166;2022-08-19T00:13:39;22.20;99.90
33382;DHT22;21342;48.786;9.166;2022-08-19T00:16:07;22.30;99.90
33382;DHT22;21342;48.786;9.166;2022-08-19T00:18:35;22.30;99.90
33382;DHT22;21342;48.786;9.166;2022-08-19T00:21:02;22.30;99.90
33382;DHT22;21342;48.786;9.166;2022-08-19T00:23:35;22.40;99.90
33382;DHT22;21342;48.786;9.166;2022-08-19T00:26:03;22.40;99.90
33382;DHT22;21342;48.786;9.166;2022-08-19T00:28:31;22.40;99.90
33382;DHT22;21342;48.786;9.166;2022-08-19T00:30:58;22.30;99.90
33382;DHT22;21342;48.786;9.166;2022-08-19T00:33:27;22.30;99.90
33382;DHT22;21342;48.786;9.166;2022-08-19T00:35:55;22.30;99.90
33382;DHT22;21342;48.786;9.166;2022-08-19T00:38:22;22.50;99.90
33382;DHT22;21342;48.786;9.166;2022-08-19T00:40:49;22.40;99.90
33382;DHT22;21342;48.786;9.166;2022-08-19T00:43:20;22.40;99.90
33382;DHT22;21342;48.786;9.166;2022-08-19T00:45:47;22.30;99.90
33382;DHT22;21342;48.786;9.166;2022-08-19T00:48:15;22.20;99.90
33382;DHT22;21342;48.786;9.166;2022-08-19T00:50:45;22.10;99.90
33382;DHT22;21342;48.786;9.166;2022-08-19T00:53:15;22.10;99.90
33382;DHT22;21342;48.786;9.166;2022-08-19T00:55:46;22.10;99.90
33382;DHT22;21342;48.786;9.166;2022-08-19T00:58:16;22.10;99.90
33382;DHT22;21342;48.786;9.166;2022-08-19T01:00:45;22.20;99.90
33382;DHT22;21342;48.786;9.166;2022-08-19T01:03:17;22.20;99.90
33382;DHT22;21342;48.786;9.166;2022-08-19T01:05:47;22.20;99.90
33382;DHT22;21342;48.786;9.166;2022-08-19T01:08:17;22.20;99.90
33382;DHT22;21342;48.786;9.166;2022-08-19T01:10:48;22.20;99.90
33382;DHT22;21342;48.786;9.166;2022-08-19T01:13:17;22.20;99.90
33382;DHT22;21342;48.786;9.166;2022-08-19T01:15:49;22.30;99.90
33382;DHT22;21342;48.786;9.166;2022-08-19T01:18:19;22.30;99.90
33382;DHT22;21342;48.786;9.166;2022-08-19T01:20:48;22.20;99.90
33382;DHT22;21342;48.786;9.166;2022-08-19T01:23:17;22.30;99.90
33382;DHT22;21342;48.786;9.166;2022-08-19T01:25:46;22.30;99.90
33382;DHT22;21342;48.786;9.166;2022-08-19T01:28:16;22.50;99.90
33382;DHT22;21342;48.786;9.166;2022-08-19T01:30:44;22.40;99.90
33382;DHT22;21342;48.786;9.166;2022-08-19T01:33:13;22.30;99.90
33382;DHT22;21342;48.786;9.166;2022-08-19T01:35:41;22.30;99.90
33382;DHT22;21342;48.786;9.166;2022-08-19T01:38:10;22.20;99.90
33382;DHT22;21342;48.786;9.166;2022-08-19T01:40:39;22.20;99.90
33382;DHT22;21342;48.786;9.166;2022-08-19T01:43:07;22.20;99.90
33382;DHT22;21342;48.786;9.166;2022-08-19T01:45:38;22.10;99.90
33382;DHT22;21342;48.786;9.166;2022-08-19T01:48:06;22.10;99.90
33382;DHT22;21342;48.786;9.166;2022-08-19T01:50:34;22.20;99.90
33382;DHT22;21342;48.786;9.166;2022-08-19T01:53:03;22.10;99.90
33382;DHT22;21342;48.786;9.166;2022-08-19T01:55:31;22.10;99.90
33382;DHT22;21342;48.786;9.166;2022-08-19T01:58:01;22.10;99.90
33382;DHT22;21342;48.786;9.166;2022-08-19T02:00:30;22.10;99.90
33382;DHT22;21342;48.786;9.166;2022-08-19T02:02:58;22.10;99.90
33382;DHT22;21342;48.786;9.166;2022-08-19T02:05:27;22.10;99.90
33382;DHT22;21342;48.786;9.166;2022-08-19T02:07:55;22.10;99.90
33382;DHT22;21342;48.786;9.166;2022-08-19T02:10:22;22.10;99.90
33382;DHT22;21342;48.786;9.166;2022-08-19T02:12:50;21.90;99.90
33382;DHT22;21342;48.786;9.166;2022-08-19T02:15:20;21.90;99.90
33382;DHT22;21342;48.786;9.166;2022-08-19T02:17:48;21.90;99.90
33382;DHT22;21342;48.786;9.166;2022-08-19T02:20:16;21.90;99.90
33382;DHT22;21342;48.786;9.166;2022-08-19T02:22:43;21.90;99.90
33382;DHT22;21342;48.786;9.166;2022-08-19T02:25:12;21.80;99.90
33382;DHT22;21342;48.786;9.166;2022-08-19T02:27:39;21.90;99.90
33382;DHT22;21342;48.786;9.166;2022-08-19T02:30:10;21.90;99.90
33382;DHT22;21342;48.786;9.166;2022-08-19T02:32:39;22.00;99.90
33382;DHT22;21342;48.786;9.166;2022-08-19T02:35:08;21.90;99.90
33382;DHT22;21342;48.786;9.166;2022-08-19T02:37:35;21.90;99.90
33382;DHT22;21342;48.786;9.166;2022-08-19T02:40:20;21.90;99.90
33382;DHT22;21342;48.786;9.166;2022-08-19T02:42:47;21.90;99.90
33382;DHT22;21342;48.786;9.166;2022-08-19T02:45:14;21.80;99.90
33382;DHT22;21342;48.786;9.166;2022-08-19T02:47:43;21.70;99.90
33382;DHT22;21342;48.786;9.166;2022-08-19T02:50:10;21.70;99.90
33382;DHT22;21342;48.786;9.166;2022-08-19T02:52:38;21.70;99.90
33382;DHT22;21342;48.786;9.166;2022-08-19T02:55:07;21.70;99.90
33382;DHT22;21342;48.786;9.166;2022-08-19T02:57:34;21.60;99.90
33382;DHT22;21342;48.786;9.166;2022-08-19T03:00:04;21.60;99.90
33382;DHT22;21342;48.786;9.166;2022-08-19T03:02:32;21.60;99.90
33382;DHT22;21342;48.786;9.166;2022-08-19T03:05:02;21.60;99.90
33382;DHT22;21342;48.786;9.166;2022-08-19T03:07:29;21.70;99.90
33382;DHT22;21342;48.786;9.166;2022-08-19T03:09:56;21.70;99.90
33382;DHT22;21342;48.786;9.166;2022-08-19T03:12:23;21.60;99.90
33382;DHT22;21342;48.786;9.166;2022-08-19T03:14:50;21.60;99.90
33382;DHT22;21342;48.786;9.166;2022-08-19T03:17:18;21.60;99.90
33382;DHT22;21342;48.786;9.166;2022-08-19T03:19:46;21.40;99.90
33382;DHT22;21342;48.786;9.166;2022-08-19T03:22:14;21.40;99.90
33382;DHT22;21342;48.786;9.166;2022-08-19T03:24:41;21.40;99.90
33382;DHT22;21342;48.786;9.166;2022-08-19T03:27:09;21.30;99.90
33382;DHT22;21342;48.786;9.166;2022-08-19T03:29:37;21.30;99.90
33382;DHT22;21342;48.786;9.166;2022-08-19T03:32:06;21.20;99.90
33382;DHT22;21342;48.786;9.166;2022-08-19T03:34:35;21.20;99.90
33382;DHT22;21342;48.786;9.166;2022-08-19T03:37:05;21.20;99.90
33382;DHT22;21342;48.786;9.166;2022-08-19T03:39:36;21.10;99.90
33382;DHT22;21342;48.786;9.166;2022-08-19T03:42:04;21.00;99.90
33382;DHT22;21342;48.786;9.166;2022-08-19T03:44:31;21.00;99.90
33382;DHT22;21342;48.786;9.166;2022-08-19T03:46:59;21.00;99.90
33382;DHT22;21342;48.786;9.166;2022-08-19T03:49:28;21.10;99.90
33382;DHT22;21342;48.786;9.166;2022-08-19T03:51:57;21.00;99.90
33382;DHT22;21342;48.786;9.166;2022-08-19T03:54:26;21.10;99.90
33382;DHT22;21342;48.786;9.166;2022-08-19T03:56:56;21.10;99.90
33382;DHT22;21342;48.786;9.166;2022-08-19T03:59:26;21.00;99.90
33382;DHT22;21342;48.786;9.166;2022-08-19T04:01:55;21.00;99.90
33382;DHT22;21342;48.786;9.166;2022-08-19T04:04:23;21.00;99.90
33382;DHT22;21342;48.786;9.166;2022-08-19T04:06:50;21.00;99.90
33382;DHT22;21342;48.786;9.166;2022-08-19T04:09:18;20.90;99.90
33382;DHT22;21342;48.786;9.166;2022-08-19T04:11:47;21.00;99.90
33382;DHT22;21342;48.786;9.166;2022-08-19T04:14:18;21.00;99.90
33382;DHT22;21342;48.786;9.166;2022-08-19T04:16:46;21.20;99.90
33382;DHT22;21342;48.786;9.166;2022-08-19T04:19:15;21.50;99.90
33382;DHT22;21342;48.786;9.166;2022-08-19T04:21:43;21.40;99.90
33382;DHT22;21342;48.786;9.166;2022-08-19T04:24:11;21.30;99.90
33382;DHT22;21342;48.786;9.166;2022-08-19T04:26:39;21.30;99.90
33382;DHT22;21342;48.786;9.166;2022-08-19T04:29:08;21.20;99.90
33382;DHT22;21342;48.786;9.166;2022-08-19T04:31:38;21.20;99.90
33382;DHT22;21342;48.786;9.166;2022-08-19T04:34:08;21.20;99.90
33382;DHT22;21342;48.786;9.166;2022-08-19T04:36:38;21.10;99.90
33382;DHT22;21342;48.786;9.166;2022-08-19T04:39:07;20.90;99.90
33382;DHT22;21342;48.786;9.166;2022-08-19T04:41:34;21.00;99.90
33382;DHT22;21342;48.786;9.166;2022-08-19T04:44:19;21.10;99.90
33382;DHT22;21342;48.786;9.166;2022-08-19T04:46:53;21.00;99.90
33382;DHT22;21342;48.786;9.166;2022-08-19T04:49:21;21.10;99.90
33382;DHT22;21342;48.786;9.166;2022-08-19T04:51:50;21.10;99.90
33382;DHT22;21342;48.786;9.166;2022-08-19T04:54:21;21.10;99.90
33382;DHT22;21342;48.786;9.166;2022-08-19T04:56:49;21.00;99.90
33382;DHT22;21342;48.786;9.166;2022-08-19T04:59:17;21.00;99.90
33382;DHT22;21342;48.786;9.166;2022-08-19T05:01:46;21.10;99.90
33382;DHT22;21342;48.786;9.166;2022-08-19T05:04:18;21.20;99.90
33382;DHT22;21342;48.786;9.166;2022-08-19T05:06:47;21.20;99.90
33382;DHT22;21342;48.786;9.166;2022-08-19T05:09:14;21.20;99.90
33382;DHT22;21342;48.786;9.166;2022-08-19T05:11:43;21.10;99.90
33382;DHT22;21342;48.786;9.166;2022-08-19T05:14:11;21.10;99.90
33382;DHT22;21342;48.786;9.166;2022-08-19T05:16:39;21.10;99.90
33382;DHT22;21342;48.786;9.166;2022-08-19T05:19:07;21.10;99.90
33382;DHT22;21342;48.786;9.166;2022-08-19T05:21:53;21.10;99.90
33382;DHT22;21342;48.786;9.166;2022-08-19T05:24:38;21.20;99.90
33382;DHT22;21342;48.786;9.166;2022-08-19T05:27:05;21.30;99.90
33382;DHT22;21342;48.786;9.166;2022-08-19T05:29:33;21.30;99.90
33382;DHT22;21342;48.786;9.166;2022-08-19T05:32:02;21.60;99.90
33382;DHT22;21342;48.786;9.166;2022-08-19T05:34:30;21.80;99.90
33382;DHT22;21342;48.786;9.166;2022-08-19T05:37:02;21.70;99.90
33382;DHT22;21342;48.786;9.166;2022-08-19T05:39:31;21.60;99.90
33382;DHT22;21342;48.786;9.166;2022-08-19T05:42:01;21.50;99.90
33382;DHT22;21342;48.786;9.166;2022-08-19T05:44:30;21.50;99.90
33382;DHT22;21342;48.786;9.166;2022-08-19T05:46:58;21.40;99.90
33382;DHT22;21342;48.786;9.166;2022-08-19T05:49:26;21.30;99.90
33382;DHT22;21342;48.786;9.166;2022-08-19T05:51:54;21.40;99.90
33382;DHT22;21342;48.786;9.166;2022-08-19T05:54:23;21.40;99.90
33382;DHT22;21342;48.786;9.166;2022-08-19T05:56:51;21.40;99.90
33382;DHT22;21342;48.786;9.166;2022-08-19T05:59:19;21.40;99.90
33382;DHT22;21342;48.786;9.166;2022-08-19T06:01:48;21.40;99.90
33382;DHT22;21342;48.786;9.166;2022-08-19T06:04:18;21.20;99.90
33382;DHT22;21342;48.786;9.166;2022-08-19T06:06:45;21.20;99.90
33382;DHT22;21342;48.786;9.166;2022-08-19T06:09:13;21.30;99.90
33382;DHT22;21342;48.786;9.166;2022-08-19T06:11:43;21.30;99.90
33382;DHT22;21342;48.786;9.166;2022-08-19T06:14:13;21.40;99.90
33382;DHT22;21342;48.786;9.166;2022-08-19T06:16:42;21.40;99.90
33382;DHT22;21342;48.786;9.166;2022-08-19T06:19:12;21.50;99.90
33382;DHT22;21342;48.786;9.166;2022-08-19T06:21:41;21.70;99.90
33382;DHT22;21342;48.786;9.166;2022-08-19T06:24:11;21.70;99.90
33382;DHT22;21342;48.786;9.166;2022-08-19T06:26:42;21.50;99.90
33382;DHT22;21342;48.786;9.166;2022-08-19T06:29:12;21.50;99.90
33382;DHT22;21342;48.786;9.166;2022-08-19T06:31:42;21.60;99.90
33382;DHT22;21342;48.786;9.166;2022-08-19T06:34:10;21.70;99.90
33382;DHT22;21342;48.786;9.166;2022-08-19T06:36:40;22.10;99.90
33382;DHT22;21342;48.786;9.166;2022-08-19T06:39:11;22.10;99.90
33382;DHT22;21342;48.786;9.166;2022-08-19T06:41:43;21.80;99.90
33382;DHT22;21342;48.786;9.166;2022-08-19T06:44:11;21.90;99.90
33382;DHT22;21342;48.786;9.166;2022-08-19T06:46:39;21.70;99.90
33382;DHT22;21342;48.786;9.166;2022-08-19T06:49:07;21.60;99.90
33382;DHT22;21342;48.786;9.166;2022-08-19T06:51:35;21.70;99.90
33382;DHT22;21342;48.786;9.166;2022-08-19T06:54:03;21.80;99.90
33382;DHT22;21342;48.786;9.166;2022-08-19T06:56:31;21.60;99.90
33382;DHT22;21342;48.786;9.166;2022-08-19T06:59:02;21.40;99.90
33382;DHT22;21342;48.786;9.166;2022-08-19T07:01:29;21.20;99.90
33382;DHT22;21342;48.786;9.166;2022-08-19T07:03:56;21.20;99.90
33382;DHT22;21342;48.786;9.166;2022-08-19T07:06:23;21.00;99.90
33382;DHT22;21342;48.786;9.166;2022-08-19T07:08:51;20.90;99.90
33382;DHT22;21342;48.786;9.166;2022-08-19T07:11:18;20.90;99.90
33382;DHT22;21342;48.786;9.166;2022-08-19T07:13:46;20.90;99.90
33382;DHT22;21342;48.786;9.166;2022-08-19T07:16:17;21.20;99.90
33382;DHT22;21342;48.786;9.166;2022-08-19T07:18:45;21.20;99.90
33382;DHT22;21342;48.786;9.166;2022-08-19T07:21:14;21.30;99.90
33382;DHT22;21342;48.786;9.166;2022-08-19T07:23:42;21.30;99.90
33382;DHT22;21342;48.786;9.166;2022-08-19T07:26:12;21.10;99.90
33382;DHT22;21342;48.786;9.166;2022-08-19T07:28:39;21.20;99.90
33382;DHT22;21342;48.786;9.166;2022-08-19T07:31:07;21.10;99.90
33382;DHT22;21342;48.786;9.166;2022-08-19T07:33:36;21.20;99.90
33382;DHT22;21342;48.786;9.166;2022-08-19T07:36:04;21.10;99.90
33382;DHT22;21342;48.786;9.166;2022-08-19T07:38:31;21.00;99.90
33382;DHT22;21342;48.786;9.166;2022-08-19T07:40:59;21.10;99.90
33382;DHT22;21342;48.786;9.166;2022-08-19T07:43:26;21.00;99.90
33382;DHT22;21342;48.786;9.166;2022-08-19T07:45:55;21.00;99.90
33382;DHT22;21342;48.786;9.166;2022-08-19T07:48:23;21.10;99.90
33382;DHT22;21342;48.786;9.166;2022-08-19T07:50:53;21.10;99.90
33382;DHT22;21342;48.786;9.166;2022-08-19T07:53:20;21.10;99.90
33382;DHT22;21342;48.786;9.166;2022-08-19T07:55:48;21.10;99.90
33382;DHT22;21342;48.786;9.166;2022-08-19T07:58:21;21.10;99.90
33382;DHT22;21342;48.786;9.166;2022-08-19T08:00:50;21.20;99.90
33382;DHT22;21342;48.786;9.166;2022-08-19T08:03:19;21.50;99.90
33382;DHT22;21342;48.786;9.166;2022-08-19T08:06:08;21.60;99.90
33382;DHT22;21342;48.786;9.166;2022-08-19T08:08:53;21.60;99.90
33382;DHT22;21342;48.786;9.166;2022-08-19T08:11:43;21.80;99.90
33382;DHT22;21342;48.786;9.166;2022-08-19T08:14:18;21.90;99.90
33382;DHT22;21342;48.786;9.166;2022-08-19T08:16:45;22.00;99.90
33382;DHT22;21342;48.786;9.166;2022-08-19T08:19:13;21.70;99.90
33382;DHT22;21342;48.786;9.166;2022-08-19T08:21:43;21.50;99.90
33382;DHT22;21342;48.786;9.166;2022-08-19T08:24:10;21.40;99.90
33382;DHT22;21342;48.786;9.166;2022-08-19T08:26:38;21.30;99.90
33382;DHT22;21342;48.786;9.166;2022-08-19T08:29:05;21.60;99.90
33382;DHT22;21342;48.786;9.166;2022-08-19T08:31:33;21.60;99.90
33382;DHT22;21342;48.786;9.166;2022-08-19T08:34:00;21.50;99.90
33382;DHT22;21342;48.786;9.166;2022-08-19T08:36:28;21.50;99.90
33382;DHT22;21342;48.786;9.166;2022-08-19T08:39:00;21.50;99.90
33382;DHT22;21342;48.786;9.166;2022-08-19T08:41:33;21.60;99.90
33382;DHT22;21342;48.786;9.166;2022-08-19T08:44:03;21.60;99.90
33382;DHT22;21342;48.786;9.166;2022-08-19T08:46:36;21.70;99.90
33382;DHT22;21342;48.786;9.166;2022-08-19T08:49:16;21.80;99.90
33382;DHT22;21342;48.786;9.166;2022-08-19T08:51:48;21.90;99.90
33382;DHT22;21342;48.786;9.166;2022-08-19T08:54:20;22.00;99.90
33382;DHT22;21342;48.786;9.166;2022-08-19T08:56:52;21.90;99.90
33382;DHT22;21342;48.786;9.166;2022-08-19T08:59:24;21.80;99.90
33382;DHT22;21342;48.786;9.166;2022-08-19T09:01:52;21.90;99.90
33382;DHT22;21342;48.786;9.166;2022-08-19T09:04:20;22.00;99.90
33382;DHT22;21342;48.786;9.166;2022-08-19T09:06:52;21.80;99.90
33382;DHT22;21342;48.786;9.166;2022-08-19T09:09:30;21.60;99.90
33382;DHT22;21342;48.786;9.166;2022-08-19T09:12:06;21.40;99.90
33382;DHT22;21342;48.786;9.166;2022-08-19T09:14:41;21.40;99.90
33382;DHT22;21342;48.786;9.166;2022-08-19T09:17:11;21.50;99.90
33382;DHT22;21342;48.786;9.166;2022-08-19T09:19:49;21.50;99.90
33382;DHT22;21342;48.786;9.166;2022-08-19T09:22:16;21.60;99.90
33382;DHT22;21342;48.786;9.166;2022-08-19T09:24:48;21.60;99.90
33382;DHT22;21342;48.786;9.166;2022-08-19T09:27:16;21.80;99.90
33382;DHT22;21342;48.786;9.166;2022-08-19T09:29:43;22.00;99.90
33382;DHT22;21342;48.786;9.166;2022-08-19T09:32:10;22.00;99.90
33382;DHT22;21342;48.786;9.166;2022-08-19T09:34:37;22.10;99.90
33382;DHT22;21342;48.786;9.166;2022-08-19T09:37:04;22.20;99.90
33382;DHT22;21342;48.786;9.166;2022-08-19T09:39:32;22.40;99.90
33382;DHT22;21342;48.786;9.166;2022-08-19T09:42:00;22.50;99.90
33382;DHT22;21342;48.786;9.166;2022-08-19T09:44:29;22.60;99.90
33382;DHT22;21342;48.786;9.166;2022-08-19T09:46:56;22.60;99.90
33382;DHT22;21342;48.786;9.166;2022-08-19T09:49:23;22.50;99.90
33382;DHT22;21342;48.786;9.166;2022-08-19T09:51:51;22.70;99.90
33382;DHT22;21342;48.786;9.166;2022-08-19T09:54:20;22.80;99.90
33382;DHT22;21342;48.786;9.166;2022-08-19T09:56:48;22.90;99.90
33382;DHT22;21342;48.786;9.166;2022-08-19T09:59:17;22.90;99.90
33382;DHT22;21342;48.786;9.166;2022-08-19T10:01:44;22.80;99.90
33382;DHT22;21342;48.786;9.166;2022-08-19T10:04:11;22.70;99.90
33382;DHT22;21342;48.786;9.166;2022-08-19T10:06:39;22.90;99.90
33382;DHT22;21342;48.786;9.166;2022-08-19T10:09:08;23.00;99.90
33382;DHT22;21342;48.786;9.166;2022-08-19T10:11:38;23.00;99.90
33382;DHT22;21342;48.786;9.166;2022-08-19T10:14:06;22.90;99.90
33382;DHT22;21342;48.786;9.166;2022-08-19T10:16:36;22.80;99.90
33382;DHT22;21342;48.786;9.166;2022-08-19T10:19:04;22.80;99.90
33382;DHT22;21342;48.786;9.166;2022-08-19T10:21:33;23.10;99.90
33382;DHT22;21342;48.786;9.166;2022-08-19T10:24:03;22.90;99.90
33382;DHT22;21342;48.786;9.166;2022-08-19T10:26:33;22.90;99.90
33382;DHT22;21342;48.786;9.166;2022-08-19T10:29:01;22.90;99.90
33382;DHT22;21342;48.786;9.166;2022-08-19T10:31:31;22.80;99.90
33382;DHT22;21342;48.786;9.166;2022-08-19T10:34:01;23.10;99.90
33382;DHT22;21342;48.786;9.166;2022-08-19T10:36:30;23.20;99.90
33382;DHT22;21342;48.786;9.166;2022-08-19T10:39:00;23.20;99.90
33382;DHT22;21342;48.786;9.166;2022-08-19T10:41:29;23.20;99.90
33382;DHT22;21342;48.786;9.166;2022-08-19T10:44:01;23.00;99.90
33382;DHT22;21342;48.786;9.166;2022-08-19T10:46:29;23.10;99.90
33382;DHT22;21342;48.786;9.166;2022-08-19T10:49:00;23.20;99.90
33382;DHT22;21342;48.786;9.166;2022-08-19T10:51:27;23.40;99.90
33382;DHT22;21342;48.786;9.166;2022-08-19T10:54:11;23.60;99.90
33382;DHT22;21342;48.786;9.166;2022-08-19T10:56:39;23.40;99.90
33382;DHT22;21342;48.786;9.166;2022-08-19T10:59:19;23.50;99.90
33382;DHT22;21342;48.786;9.166;2022-08-19T11:01:47;23.40;99.90
33382;DHT22;21342;48.786;9.166;2022-08-19T11:04:17;23.60;99.90
33382;DHT22;21342;48.786;9.166;2022-08-19T11:06:45;23.70;99.90
33382;DHT22;21342;48.786;9.166;2022-08-19T11:09:13;23.50;99.90
33382;DHT22;21342;48.786;9.166;2022-08-19T11:11:41;23.40;99.90
33382;DHT22;21342;48.786;9.166;2022-08-19T11:14:09;23.40;99.90
33382;DHT22;21342;48.786;9.166;2022-08-19T11:16:37;23.40;99.90
33382;DHT22;21342;48.786;9.166;2022-08-19T11:19:05;23.50;99.90
33382;DHT22;21342;48.786;9.166;2022-08-19T11:21:37;23.60;99.90
33382;DHT22;21342;48.786;9.166;2022-08-19T11:24:07;23.70;99.90
33382;DHT22;21342;48.786;9.166;2022-08-19T11:26:36;23.80;99.90
33382;DHT22;21342;48.786;9.166;2022-08-19T11:29:05;24.00;99.90
33382;DHT22;21342;48.786;9.166;2022-08-19T11:31:38;23.90;99.90
33382;DHT22;21342;48.786;9.166;2022-08-19T11:34:08;24.00;99.90
33382;DHT22;21342;48.786;9.166;2022-08-19T11:36:40;24.00;99.90
33382;DHT22;21342;48.786;9.166;2022-08-19T11:39:12;24.00;99.90
33382;DHT22;21342;48.786;9.166;2022-08-19T11:41:40;24.00;99.90
33382;DHT22;21342;48.786;9.166;2022-08-19T11:44:07;24.00;99.90
33382;DHT22;21342;48.786;9.166;2022-08-19T11:46:36;24.00;99.90
33382;DHT22;21342;48.786;9.166;2022-08-19T11:49:05;24.00;99.90
33382;DHT22;21342;48.786;9.166;2022-08-19T11:51:33;24.10;99.90
33382;DHT22;21342;48.786;9.166;2022-08-19T11:54:04;24.20;99.90
33382;DHT22;21342;48.786;9.166;2022-08-19T11:56:32;24.20;99.90
33382;DHT22;21342;48.786;9.166;2022-08-19T11:59:00;24.30;99.90
33382;DHT22;21342;48.786;9.166;2022-08-19T12:01:28;24.30;99.90
33382;DHT22;21342;48.786;9.166;2022-08-19T12:03:56;24.30;99.90
33382;DHT22;21342;48.786;9.166;2022-08-19T12:06:26;24.30;99.90
33382;DHT22;21342;48.786;9.166;2022-08-19T12:08:55;24.30;99.90
33382;DHT22;21342;48.786;9.166;2022-08-19T12:11:24;24.30;99.90
33382;DHT22;21342;48.786;9.166;2022-08-19T12:13:52;24.20;99.90
33382;DHT22;21342;48.786;9.166;2022-08-19T12:16:22;24.10;99.90
33382;DHT22;21342;48.786;9.166;2022-08-19T12:18:49;24.20;99.90
33382;DHT22;21342;48.786;9.166;2022-08-19T12:21:18;24.20;99.90
33382;DHT22;21342;48.786;9.166;2022-08-19T12:23:48;24.20;99.90
33382;DHT22;21342;48.786;9.166;2022-08-19T12:26:16;24.30;99.90
33382;DHT22;21342;48.786;9.166;2022-08-19T12:28:44;24.20;99.90
33382;DHT22;21342;48.786;9.166;2022-08-19T12:31:14;24.30;99.90
33382;DHT22;21342;48.786;9.166;2022-08-19T12:33:42;24.20;99.90
33382;DHT22;21342;48.786;9.166;2022-08-19T12:36:12;24.10;99.90
33382;DHT22;21342;48.786;9.166;2022-08-19T12:38:40;24.10;99.90
33382;DHT22;21342;48.786;9.166;2022-08-19T12:41:09;24.00;99.90
33382;DHT22;21342;48.786;9.166;2022-08-19T12:43:38;24.00;99.90
33382;DHT22;21342;48.786;9.166;2022-08-19T12:46:07;24.00;99.90
33382;DHT22;21342;48.786;9.166;2022-08-19T12:48:35;24.10;99.90
33382;DHT22;21342;48.786;9.166;2022-08-19T12:51:06;24.00;99.90
33382;DHT22;21342;48.786;9.166;2022-08-19T12:53:35;24.00;99.90
33382;DHT22;21342;48.786;9.166;2022-08-19T12:56:03;24.00;99.90
33382;DHT22;21342;48.786;9.166;2022-08-19T12:58:30;24.10;99.90
33382;DHT22;21342;48.786;9.166;2022-08-19T13:01:00;24.10;99.90
33382;DHT22;21342;48.786;9.166;2022-08-19T13:03:33;24.30;99.90
33382;DHT22;21342;48.786;9.166;2022-08-19T13:06:00;24.30;99.90
33382;DHT22;21342;48.786;9.166;2022-08-19T13:08:28;24.40;99.90
33382;DHT22;21342;48.786;9.166;2022-08-19T13:10:55;24.40;99.90
33382;DHT22;21342;48.786;9.166;2022-08-19T13:13:23;24.40;99.90
33382;DHT22;21342;48.786;9.166;2022-08-19T13:15:51;24.20;99.90
33382;DHT22;21342;48.786;9.166;2022-08-19T13:18:18;24.10;99.90
33382;DHT22;21342;48.786;9.166;2022-08-19T13:20:47;24.00;99.90
33382;DHT22;21342;48.786;9.166;2022-08-19T13:23:14;24.00;99.90
33382;DHT22;21342;48.786;9.166;2022-08-19T13:25:41;24.00;99.90
33382;DHT22;21342;48.786;9.166;2022-08-19T13:28:08;23.90;99.90
33382;DHT22;21342;48.786;9.166;2022-08-19T13:30:36;23.90;99.90
33382;DHT22;21342;48.786;9.166;2022-08-19T13:33:20;23.80;99.90
33382;DHT22;21342;48.786;9.166;2022-08-19T13:35:51;23.70;99.90
33382;DHT22;21342;48.786;9.166;2022-08-19T13:38:22;23.80;99.90
33382;DHT22;21342;48.786;9.166;2022-08-19T13:40:51;23.80;99.90
33382;DHT22;21342;48.786;9.166;2022-08-19T13:43:20;23.80;99.90
33382;DHT22;21342;48.786;9.166;2022-08-19T13:45:47;23.70;99.90
33382;DHT22;21342;48.786;9.166;2022-08-19T13:48:15;23.70;99.90
33382;DHT22;21342;48.786;9.166;2022-08-19T13:50:45;23.70;99.90
33382;DHT22;21342;48.786;9.166;2022-08-19T13:53:15;23.60;99.90
33382;DHT22;21342;48.786;9.166;2022-08-19T13:55:43;23.50;99.90
33382;DHT22;21342;48.786;9.166;2022-08-19T13:58:11;23.40;99.90
33382;DHT22;21342;48.786;9.166;2022-08-19T14:00:40;23.50;99.90
33382;DHT22;21342;48.786;9.166;2022-08-19T14:03:08;23.30;99.90
33382;DHT22;21342;48.786;9.166;2022-08-19T14:05:36;23.20;99.90
33382;DHT22;21342;48.786;9.166;2022-08-19T14:08:04;23.10;99.90
33382;DHT22;21342;48.786;9.166;2022-08-19T14:10:33;23.00;99.90
33382;DHT22;21342;48.786;9.166;2022-08-19T14:13:02;23.10;99.90
33382;DHT22;21342;48.786;9.166;2022-08-19T14:15:30;22.80;99.90
33382;DHT22;21342;48.786;9.166;2022-08-19T14:17:57;22.80;99.90
33382;DHT22;21342;48.786;9.166;2022-08-19T14:20:25;22.70;99.90
33382;DHT22;21342;48.786;9.166;2022-08-19T14:22:53;22.90;99.90
33382;DHT22;21342;48.786;9.166;2022-08-19T14:25:22;22.70;99.90
33382;DHT22;21342;48.786;9.166;2022-08-19T14:27:51;22.80;99.90
33382;DHT22;21342;48.786;9.166;2022-08-19T14:30:20;22.90;99.90
33382;DHT22;21342;48.786;9.166;2022-08-19T14:32:48;22.80;99.90
33382;DHT22;21342;48.786;9.166;2022-08-19T14:35:15;22.80;99.90
33382;DHT22;21342;48.786;9.166;2022-08-19T14:37:44;22.70;99.90
33382;DHT22;21342;48.786;9.166;2022-08-19T14:40:12;22.90;99.90
33382;DHT22;21342;48.786;9.166;2022-08-19T14:42:39;23.00;99.90
33382;DHT22;21342;48.786;9.166;2022-08-19T14:45:10;23.10;99.90
33382;DHT22;21342;48.786;9.166;2022-08-19T14:47:37;23.20;99.90
33382;DHT22;21342;48.786;9.166;2022-08-19T14:50:06;23.10;99.90
33382;DHT22;21342;48.786;9.166;2022-08-19T14:52:33;23.00;99.90
33382;DHT22;21342;48.786;9.166;2022-08-19T14:55:00;23.00;99.90
33382;DHT22;21342;48.786;9.166;2022-08-19T14:57:27;23.10;99.90
33382;DHT22;21342;48.786;9.166;2022-08-19T14:59:55;23.00;99.90
33382;DHT22;21342;48.786;9.166;2022-08-19T15:02:25;23.20;99.90
33382;DHT22;21342;48.786;9.166;2022-08-19T15:04:52;23.20;99.90
33382;DHT22;21342;48.786;9.166;2022-08-19T15:07:21;23.20;99.90
33382;DHT22;21342;48.786;9.166;2022-08-19T15:09:49;23.20;99.90
33382;DHT22;21342;48.786;9.166;2022-08-19T15:12:16;23.40;99.90
33382;DHT22;21342;48.786;9.166;2022-08-19T15:14:43;23.50;99.90
33382;DHT22;21342;48.786;9.166;2022-08-19T15:17:16;23.40;99.90
33382;DHT22;21342;48.786;9.166;2022-08-19T15:19:46;23.40;99.90
33382;DHT22;21342;48.786;9.166;2022-08-19T15:22:13;23.60;99.90
33382;DHT22;21342;48.786;9.166;2022-08-19T15:24:40;23.70;99.90
33382;DHT22;21342;48.786;9.166;2022-08-19T15:27:15;23.70;99.90
33382;DHT22;21342;48.786;9.166;2022-08-19T15:29:42;23.80;99.90
33382;DHT22;21342;48.786;9.166;2022-08-19T15:32:10;23.80;99.90
33382;DHT22;21342;48.786;9.166;2022-08-19T15:34:38;23.90;99.90
33382;DHT22;21342;48.786;9.166;2022-08-19T15:37:06;24.00;99.90
33382;DHT22;21342;48.786;9.166;2022-08-19T15:39:33;24.10;99.90
33382;DHT22;21342;48.786;9.166;2022-08-19T15:42:00;24.00;99.90